createdAt,value
2018-09-09T00:00:36.924Z,54.70
2018-09-09T00:03:05.208Z,54.90
2018-09-09T00:05:33.484Z,54.70
2018-09-09T00:08:01.757Z,54.50
2018-09-09T00:10:30.011Z,54.40
2018-09-09T00:12:58.287Z,54.20
2018-09-09T00:15:26.550Z,54.30
2018-09-09T00:17:54.832Z,54.30
2018-09-09T00:20:23.124Z,54.10
2018-09-09T00:22:51.390Z,54.30
2018-09-09T00:25:19.685Z,54.90
2018-09-09T00:27:47.959Z,54.40
2018-09-09T00:30:16.251Z,54.30
2018-09-09T00:32:44.540Z,54.40
2018-09-09T00:35:12.887Z,54.60
2018-09-09T00:37:41.152Z,54.60
2018-09-09T00:40:09.427Z,54.50
2018-09-09T00:42:37.707Z,54.30
2018-09-09T00:45:06.159Z,54.20
2018-09-09T00:47:35.243Z,54.30
2018-09-09T00:50:09.021Z,54.70
2018-09-09T00:53:41.331Z,54.70
2018-09-09T00:56:09.634Z,54.50
2018-09-09T00:58:38.999Z,54.10
2018-09-09T01:01:12.573Z,54.00
2018-09-09T01:03:40.849Z,54.10
2018-09-09T01:06:09.674Z,54.40
2018-09-09T01:08:37.965Z,54.20
2018-09-09T01:11:06.695Z,54.10
2018-09-09T01:13:34.953Z,54.10
2018-09-09T01:16:03.236Z,54.10
2018-09-09T01:18:31.797Z,54.00
2018-09-09T01:21:00.148Z,54.20
2018-09-09T01:23:28.412Z,54.50
2018-09-09T01:25:56.716Z,54.90
2018-09-09T01:28:24.973Z,54.30
2018-09-09T01:30:53.304Z,54.30
2018-09-09T01:33:21.620Z,54.20
2018-09-09T01:35:49.898Z,54.30
2018-09-09T01:38:18.179Z,54.40
2018-09-09T01:40:46.643Z,54.30
2018-09-09T01:43:14.962Z,54.00
2018-09-09T01:45:43.280Z,53.70
2018-09-09T01:48:11.537Z,53.70
2018-09-09T01:50:39.811Z,53.30
2018-09-09T01:53:08.774Z,53.80
2018-09-09T01:55:37.052Z,53.80
2018-09-09T01:58:05.538Z,54.50
2018-09-09T02:00:33.856Z,53.80
2018-09-09T02:03:02.128Z,53.90
2018-09-09T02:05:30.394Z,53.90
2018-09-09T02:07:58.671Z,53.90
2018-09-09T02:10:26.923Z,54.00
2018-09-09T02:12:55.212Z,54.00
2018-09-09T02:15:23.612Z,54.00
2018-09-09T02:17:51.882Z,54.00
2018-09-09T02:20:20.174Z,54.00
2018-09-09T02:22:48.449Z,53.90
2018-09-09T02:25:17.820Z,54.00
2018-09-09T02:27:46.079Z,54.30
2018-09-09T02:30:14.357Z,54.20
2018-09-09T02:32:42.627Z,54.10
2018-09-09T02:35:10.901Z,53.70
2018-09-09T02:37:39.189Z,53.70
2018-09-09T02:40:07.434Z,53.70
2018-09-09T02:42:35.697Z,53.70
2018-09-09T02:45:03.955Z,53.70
2018-09-09T02:47:32.499Z,53.90
2018-09-09T02:50:00.828Z,53.90
2018-09-09T02:52:29.209Z,53.80
2018-09-09T02:54:57.479Z,53.70
2018-09-09T02:57:25.760Z,53.70
2018-09-09T02:59:54.125Z,53.90
2018-09-09T03:02:22.382Z,53.90
2018-09-09T03:04:50.711Z,53.90
2018-09-09T03:07:18.992Z,54.00
2018-09-09T03:09:47.284Z,54.00
2018-09-09T03:12:15.568Z,53.90
2018-09-09T03:14:43.850Z,53.90
2018-09-09T03:17:12.147Z,54.10
2018-09-09T03:19:40.412Z,54.00
2018-09-09T03:22:08.692Z,54.50
2018-09-09T03:24:36.941Z,53.60
2018-09-09T03:27:05.229Z,53.50
2018-09-09T03:29:33.494Z,53.30
2018-09-09T03:32:01.772Z,53.20
2018-09-09T03:34:30.051Z,53.70
2018-09-09T03:36:58.307Z,53.80
2018-09-09T03:39:26.585Z,53.70
2018-09-09T03:41:54.874Z,53.60
2018-09-09T03:44:23.134Z,53.70
2018-09-09T03:46:51.478Z,53.50
2018-09-09T03:49:19.741Z,54.20
2018-09-09T03:51:48.031Z,53.60
2018-09-09T03:54:16.303Z,53.30
2018-09-09T03:56:44.569Z,53.50
2018-09-09T03:59:12.864Z,53.30
2018-09-09T04:01:41.165Z,53.40
2018-09-09T04:04:09.439Z,53.30
2018-09-09T04:06:37.689Z,53.50
2018-09-09T04:09:07.135Z,53.40
2018-09-09T04:11:35.401Z,53.30
2018-09-09T04:14:03.663Z,53.20
2018-09-09T04:16:31.927Z,53.10
2018-09-09T04:19:00.189Z,53.00
2018-09-09T04:21:28.467Z,53.00
2018-09-09T04:23:56.735Z,52.90
2018-09-09T04:26:25.004Z,52.80
2018-09-09T04:28:53.279Z,52.60
2018-09-09T04:31:21.527Z,52.60
2018-09-09T04:33:49.797Z,52.40
2018-09-09T04:36:18.059Z,52.30
2018-09-09T04:38:46.337Z,52.50
2018-09-09T04:41:14.596Z,52.20
2018-09-09T04:43:42.868Z,52.00
2018-09-09T04:46:11.183Z,52.20
2018-09-09T04:48:39.390Z,52.20
2018-09-09T04:51:07.963Z,52.30
2018-09-09T04:53:36.230Z,52.20
2018-09-09T04:56:04.515Z,52.10
2018-09-09T04:58:32.782Z,52.20
2018-09-09T05:01:01.056Z,52.10
2018-09-09T05:03:29.320Z,52.30
2018-09-09T05:05:57.608Z,52.50
2018-09-09T05:08:25.875Z,52.30
2018-09-09T05:10:54.144Z,52.30
2018-09-09T05:13:22.450Z,52.00
2018-09-09T05:15:50.721Z,51.90
2018-09-09T05:18:18.999Z,51.60
2018-09-09T05:20:47.251Z,51.40
2018-09-09T05:23:15.540Z,51.40
2018-09-09T05:25:43.798Z,51.60
2018-09-09T05:28:12.070Z,51.40
2018-09-09T05:30:40.340Z,51.40
2018-09-09T05:33:08.612Z,51.40
2018-09-09T05:35:36.877Z,51.50
2018-09-09T05:38:05.533Z,51.50
2018-09-09T05:40:33.797Z,51.80
2018-09-09T05:43:02.080Z,51.70
2018-09-09T05:45:30.361Z,51.90
2018-09-09T05:47:58.616Z,51.90
2018-09-09T05:50:26.871Z,51.90
2018-09-09T05:52:55.142Z,51.90
2018-09-09T05:55:23.402Z,51.90
2018-09-09T05:57:51.767Z,51.90
2018-09-09T06:00:19.999Z,51.70
2018-09-09T06:02:48.289Z,51.70
2018-09-09T06:05:16.540Z,51.90
2018-09-09T06:07:44.834Z,51.70
2018-09-09T06:10:13.102Z,51.80
2018-09-09T06:12:41.389Z,51.70
2018-09-09T06:15:10.552Z,51.50
2018-09-09T06:17:38.830Z,51.20
2018-09-09T06:20:07.108Z,51.90
2018-09-09T06:22:35.417Z,52.10
2018-09-09T06:25:03.692Z,51.80
2018-09-09T06:27:31.972Z,52.00
2018-09-09T06:30:00.244Z,52.80
2018-09-09T06:32:28.521Z,52.30
2018-09-09T06:34:56.796Z,52.40
2018-09-09T06:37:25.068Z,52.90
2018-09-09T06:39:53.356Z,52.80
2018-09-09T06:42:21.674Z,52.70
2018-09-09T06:44:49.926Z,52.80
2018-09-09T06:47:18.171Z,52.80
2018-09-09T06:49:46.451Z,52.90
2018-09-09T06:52:14.723Z,53.10
2018-09-09T06:54:43.006Z,54.20
2018-09-09T06:57:11.337Z,53.60
2018-09-09T06:59:39.616Z,53.70
2018-09-09T07:02:08.172Z,53.60
2018-09-09T07:04:36.422Z,53.30
2018-09-09T07:07:04.802Z,53.30
2018-09-09T07:09:33.092Z,53.30
2018-09-09T07:12:01.476Z,53.40
2018-09-09T07:14:29.649Z,53.40
2018-09-09T07:16:57.982Z,53.50
2018-09-09T07:19:26.268Z,53.80
2018-09-09T07:21:54.577Z,54.40
2018-09-09T07:24:23.778Z,54.30
2018-09-09T07:26:52.064Z,54.20
2018-09-09T07:29:20.372Z,55.10
2018-09-09T07:31:48.698Z,54.10
2018-09-09T07:34:17.068Z,54.10
2018-09-09T07:36:45.334Z,54.80
2018-09-09T07:39:13.600Z,55.00
2018-09-09T07:41:41.872Z,55.00
2018-09-09T07:44:10.159Z,54.80
2018-09-09T07:46:38.452Z,54.90
2018-09-09T07:49:06.769Z,54.50
2018-09-09T07:51:35.069Z,54.70
2018-09-09T07:54:03.387Z,55.60
2018-09-09T07:56:31.679Z,55.70
2018-09-09T07:58:59.967Z,55.40
2018-09-09T08:01:28.229Z,55.00
2018-09-09T08:03:56.553Z,54.70
2018-09-09T08:06:24.862Z,54.60
2018-09-09T08:08:53.154Z,54.30
2018-09-09T08:11:21.486Z,54.30
2018-09-09T08:13:49.745Z,54.30
2018-09-09T08:16:18.015Z,54.40
2018-09-09T08:18:46.309Z,54.60
2018-09-09T08:21:14.590Z,55.20
2018-09-09T08:23:42.923Z,55.70
2018-09-09T08:26:11.217Z,55.60
2018-09-09T08:28:39.505Z,55.10
2018-09-09T08:31:07.796Z,55.10
2018-09-09T08:33:36.082Z,55.20
2018-09-09T08:36:05.227Z,55.00
2018-09-09T08:38:33.512Z,55.80
2018-09-09T08:41:01.817Z,56.00
2018-09-09T08:43:30.081Z,55.80
2018-09-09T08:45:58.377Z,55.40
2018-09-09T08:48:27.377Z,55.20
2018-09-09T08:50:55.653Z,55.20
2018-09-09T08:53:23.945Z,55.10
2018-09-09T08:55:52.236Z,55.90
2018-09-09T08:58:20.539Z,56.20
2018-09-09T09:00:48.837Z,55.70
2018-09-09T09:03:17.157Z,55.40
2018-09-09T09:05:45.418Z,55.50
2018-09-09T09:08:13.736Z,55.60
2018-09-09T09:10:42.023Z,55.70
2018-09-09T09:13:10.406Z,56.30
2018-09-09T09:15:38.679Z,56.60
2018-09-09T09:18:06.960Z,56.10
2018-09-09T09:20:35.333Z,56.00
2018-09-09T09:23:03.823Z,55.70
2018-09-09T09:25:32.135Z,55.30
2018-09-09T09:28:00.705Z,55.20
2018-09-09T09:30:28.989Z,56.00
2018-09-09T09:32:57.263Z,55.20
2018-09-09T09:35:30.828Z,55.20
2018-09-09T09:38:00.068Z,54.80
2018-09-09T09:40:28.405Z,55.60
2018-09-09T09:42:56.691Z,53.60
2018-09-09T09:45:25.118Z,55.50
2018-09-09T09:47:53.401Z,56.00
2018-09-09T09:50:21.665Z,55.00
2018-09-09T09:52:49.947Z,54.00
2018-09-09T09:55:18.271Z,54.10
2018-09-09T09:57:46.538Z,51.90
2018-09-09T10:00:20.163Z,53.90
2018-09-09T10:02:48.463Z,55.30
2018-09-09T10:05:16.743Z,56.00
2018-09-09T10:07:45.032Z,55.80
2018-09-09T10:10:13.301Z,55.80
2018-09-09T10:12:41.855Z,55.60
2018-09-09T10:15:10.170Z,53.70
2018-09-09T10:17:38.501Z,54.30
2018-09-09T10:20:06.772Z,52.80
2018-09-09T10:22:35.076Z,52.10
2018-09-09T10:25:03.369Z,53.70
2018-09-09T10:27:31.647Z,53.50
2018-09-09T10:29:59.961Z,54.20
2018-09-09T10:32:29.030Z,53.10
2018-09-09T10:34:57.365Z,51.70
2018-09-09T10:37:25.895Z,51.30
2018-09-09T10:39:54.223Z,50.80
2018-09-09T10:42:22.571Z,52.60
2018-09-09T10:44:50.936Z,54.30
2018-09-09T10:47:19.338Z,52.60
2018-09-09T10:49:47.649Z,53.10
2018-09-09T10:52:15.978Z,51.10
2018-09-09T10:54:44.270Z,51.70
2018-09-09T10:57:12.572Z,51.50
2018-09-09T10:59:41.063Z,51.30
2018-09-09T11:02:09.463Z,51.10
2018-09-09T11:04:37.760Z,52.40
2018-09-09T11:07:07.377Z,54.90
2018-09-09T11:09:35.794Z,51.00
2018-09-09T11:12:04.134Z,48.50
2018-09-09T11:14:32.430Z,47.90
2018-09-09T11:17:00.775Z,48.70
2018-09-09T11:19:29.046Z,48.10
2018-09-09T11:21:57.336Z,47.00
2018-09-09T11:24:25.632Z,47.90
2018-09-09T11:26:53.988Z,47.70
2018-09-09T11:29:22.264Z,49.80
2018-09-09T11:31:50.540Z,50.20
2018-09-09T11:34:18.829Z,53.10
2018-09-09T11:36:47.160Z,54.10
2018-09-09T11:39:15.432Z,53.20
2018-09-09T11:41:43.727Z,50.20
2018-09-09T11:44:12.138Z,50.60
2018-09-09T11:46:41.342Z,49.00
2018-09-09T11:49:09.618Z,48.60
2018-09-09T11:51:37.932Z,50.00
2018-09-09T11:54:06.220Z,48.20
2018-09-09T11:56:34.492Z,48.10
2018-09-09T11:59:02.770Z,48.60
2018-09-09T12:01:31.074Z,47.60
2018-09-09T12:03:59.376Z,49.50
2018-09-09T12:06:27.672Z,52.10
2018-09-09T12:08:56.270Z,52.90
2018-09-09T12:11:24.553Z,53.40
2018-09-09T12:13:52.893Z,52.60
2018-09-09T12:16:21.206Z,50.40
2018-09-09T12:18:49.512Z,50.70
2018-09-09T12:21:17.777Z,48.60
2018-09-09T12:23:46.097Z,50.30
2018-09-09T12:26:14.367Z,50.40
2018-09-09T12:28:42.645Z,51.20
2018-09-09T12:31:10.941Z,52.10
2018-09-09T12:33:39.215Z,50.80
2018-09-09T12:36:08.045Z,49.50
2018-09-09T12:38:36.311Z,51.70
2018-09-09T12:41:04.633Z,53.10
2018-09-09T12:43:38.399Z,51.80
2018-09-09T12:47:15.834Z,52.40
2018-09-09T12:49:44.234Z,52.90
2018-09-09T12:52:12.500Z,51.90
2018-09-09T12:54:40.776Z,53.50
2018-09-09T12:57:09.046Z,49.60
2018-09-09T12:59:37.376Z,47.40
2018-09-09T13:02:05.690Z,47.30
2018-09-09T13:04:33.986Z,46.30
2018-09-09T13:07:02.286Z,47.10
2018-09-09T13:09:30.584Z,48.30
2018-09-09T13:11:58.926Z,51.10
2018-09-09T13:14:27.290Z,47.70
2018-09-09T13:16:55.553Z,50.80
2018-09-09T13:19:23.866Z,46.30
2018-09-09T13:21:52.734Z,45.70
2018-09-09T13:24:21.052Z,49.70
2018-09-09T13:26:49.332Z,50.10
2018-09-09T13:29:17.624Z,46.40
2018-09-09T13:31:45.916Z,45.30
2018-09-09T13:34:14.190Z,47.50
2018-09-09T13:36:42.517Z,49.30
2018-09-09T13:39:11.677Z,45.80
2018-09-09T13:41:39.987Z,47.40
2018-09-09T13:44:08.298Z,45.40
2018-09-09T13:46:36.630Z,46.10
2018-09-09T13:49:04.939Z,46.50
2018-09-09T13:51:33.224Z,46.50
2018-09-09T13:54:01.509Z,47.70
2018-09-09T13:56:29.784Z,49.60
2018-09-09T13:58:58.071Z,51.20
2018-09-09T14:01:26.360Z,51.10
2018-09-09T14:03:54.827Z,49.60
2018-09-09T14:06:24.096Z,51.40
2018-09-09T14:08:52.381Z,51.20
2018-09-09T14:11:20.756Z,51.10
2018-09-09T14:13:49.067Z,50.10
2018-09-09T14:16:17.361Z,50.20
2018-09-09T14:18:45.690Z,47.20
2018-09-09T14:21:14.864Z,48.60
2018-09-09T14:23:43.175Z,51.30
2018-09-09T14:26:11.452Z,52.00
2018-09-09T14:28:39.724Z,49.30
2018-09-09T14:31:08.031Z,49.00
2018-09-09T14:33:36.333Z,47.20
2018-09-09T14:36:04.637Z,48.30
2018-09-09T14:38:33.840Z,47.90
2018-09-09T14:41:02.146Z,48.30
2018-09-09T14:43:30.430Z,51.60
2018-09-09T14:45:58.857Z,46.70
2018-09-09T14:48:28.018Z,44.70
2018-09-09T14:50:56.302Z,43.30
2018-09-09T14:53:24.673Z,44.60
2018-09-09T14:55:52.921Z,45.40
2018-09-09T14:58:21.762Z,45.00
2018-09-09T15:00:50.063Z,46.30
2018-09-09T15:03:18.378Z,44.90
2018-09-09T15:05:46.662Z,46.40
2018-09-09T15:08:14.916Z,46.80
2018-09-09T15:10:43.230Z,48.70
2018-09-09T15:13:11.502Z,51.00
2018-09-09T15:15:39.804Z,51.30
2018-09-09T15:18:08.109Z,51.30
2018-09-09T15:20:36.398Z,48.50
2018-09-09T15:23:04.689Z,46.60
2018-09-09T15:25:32.960Z,45.20
2018-09-09T15:28:01.307Z,46.80
2018-09-09T15:30:29.565Z,46.50
2018-09-09T15:32:57.895Z,46.80
2018-09-09T15:35:26.152Z,47.20
2018-09-09T15:37:54.448Z,48.80
2018-09-09T15:40:22.725Z,48.50
2018-09-09T15:42:51.017Z,49.10
2018-09-09T15:45:19.656Z,51.70
2018-09-09T15:47:47.889Z,51.90
2018-09-09T15:50:16.224Z,51.70
2018-09-09T15:52:45.496Z,51.50
2018-09-09T15:55:13.816Z,51.40
2018-09-09T15:57:42.136Z,49.10
2018-09-09T16:00:10.438Z,48.50
2018-09-09T16:02:38.742Z,48.00
2018-09-09T16:05:07.489Z,46.00
2018-09-09T16:07:35.764Z,45.20
2018-09-09T16:10:04.058Z,45.70
2018-09-09T16:12:32.473Z,46.90
2018-09-09T16:15:00.786Z,48.20
2018-09-09T16:17:29.113Z,47.50
2018-09-09T16:19:58.264Z,47.90
2018-09-09T16:22:26.530Z,47.00
2018-09-09T16:24:55.080Z,47.50
2018-09-09T16:27:23.355Z,46.90
2018-09-09T16:29:51.688Z,50.00
2018-09-09T16:32:20.095Z,51.00
2018-09-09T16:34:48.392Z,51.70
2018-09-09T16:37:17.948Z,51.10
2018-09-09T16:39:46.315Z,50.80
2018-09-09T16:42:15.395Z,49.60
2018-09-09T16:44:43.750Z,47.40
2018-09-09T16:47:12.617Z,48.60
2018-09-09T16:49:40.900Z,47.40
2018-09-09T16:52:09.443Z,48.10
2018-09-09T16:54:37.751Z,47.40
2018-09-09T16:57:06.116Z,47.80
2018-09-09T16:59:34.420Z,49.40
2018-09-09T17:02:02.841Z,49.60
2018-09-09T17:04:31.253Z,48.20
2018-09-09T17:06:59.807Z,49.10
2018-09-09T17:09:28.093Z,49.70
2018-09-09T17:11:56.424Z,51.60
2018-09-09T17:14:24.791Z,52.00
2018-09-09T17:16:53.381Z,53.20
2018-09-09T17:19:21.701Z,54.50
2018-09-09T17:21:50.139Z,54.50
2018-09-09T17:24:19.696Z,54.80
2018-09-09T17:26:48.076Z,54.30
2018-09-09T17:29:16.657Z,53.80
2018-09-09T17:31:44.966Z,54.50
2018-09-09T17:34:13.269Z,55.80
2018-09-09T17:36:42.603Z,55.50
2018-09-09T17:39:11.529Z,54.90
2018-09-09T17:41:40.060Z,54.10
2018-09-09T17:44:09.416Z,54.60
2018-09-09T17:46:37.743Z,55.10
2018-09-09T17:49:07.257Z,56.70
2018-09-09T17:51:35.598Z,56.60
2018-09-09T17:54:03.987Z,56.30
2018-09-09T17:56:32.358Z,56.30
2018-09-09T17:59:01.738Z,56.10
2018-09-09T18:01:30.076Z,55.80
2018-09-09T18:03:58.376Z,56.80
2018-09-09T18:06:27.369Z,57.30
2018-09-09T18:08:55.669Z,57.20
2018-09-09T18:11:24.447Z,57.00
2018-09-09T18:13:53.059Z,56.00
2018-09-09T18:16:21.391Z,55.20
2018-09-09T18:18:49.765Z,55.60
2018-09-09T18:21:18.068Z,55.60
2018-09-09T18:23:46.780Z,55.70
2018-09-09T18:26:15.831Z,55.90
2018-09-09T18:28:44.708Z,56.00
2018-09-09T18:31:13.033Z,56.90
2018-09-09T18:33:41.398Z,56.80
2018-09-09T18:36:09.769Z,56.30
2018-09-09T18:38:38.267Z,56.10
2018-09-09T18:41:06.647Z,55.60
2018-09-09T18:43:35.041Z,55.40
2018-09-09T18:46:03.509Z,55.20
2018-09-09T18:48:32.671Z,55.60
2018-09-09T18:51:01.210Z,55.30
2018-09-09T18:53:29.972Z,55.00
2018-09-09T18:55:58.356Z,54.20
2018-09-09T18:58:27.150Z,53.80
2018-09-09T19:00:55.558Z,53.70
2018-09-09T19:03:23.974Z,54.00
2018-09-09T19:05:52.369Z,53.40
2018-09-09T19:08:20.775Z,53.00
2018-09-09T19:10:49.752Z,52.80
2018-09-09T19:13:19.102Z,52.80
2018-09-09T19:15:47.531Z,52.30
2018-09-09T19:18:15.910Z,53.30
2018-09-09T19:20:44.312Z,53.30
2018-09-09T19:23:12.692Z,53.20
2018-09-09T19:25:42.742Z,53.40
2018-09-09T19:28:11.994Z,53.30
2018-09-09T19:30:40.446Z,53.50
2018-09-09T19:33:08.898Z,54.30
2018-09-09T19:35:37.244Z,54.90
2018-09-09T19:38:05.789Z,54.50
2018-09-09T19:40:34.272Z,54.20
2018-09-09T19:43:03.668Z,54.10
2018-09-09T19:45:32.074Z,53.90
2018-09-09T19:48:00.596Z,53.90
2018-09-09T19:50:29.170Z,54.30
2018-09-09T19:52:57.548Z,54.10
2018-09-09T19:55:25.904Z,53.70
2018-09-09T19:57:54.398Z,53.60
2018-09-09T20:00:22.753Z,53.60
2018-09-09T20:02:51.194Z,53.30
2018-09-09T20:05:19.669Z,53.50
2018-09-09T20:07:48.049Z,53.80
2018-09-09T20:10:16.416Z,53.40
2018-09-09T20:12:44.766Z,53.90
2018-09-09T20:15:13.185Z,53.10
2018-09-09T20:17:41.484Z,52.50
2018-09-09T20:20:10.759Z,52.50
2018-09-09T20:22:39.119Z,52.50
2018-09-09T20:25:07.439Z,52.80
2018-09-09T20:27:36.860Z,52.20
2018-09-09T20:30:05.213Z,52.00
2018-09-09T20:32:33.675Z,51.80
2018-09-09T20:35:02.032Z,51.70
2018-09-09T20:37:30.316Z,52.50
2018-09-09T20:39:58.663Z,52.50
2018-09-09T20:42:26.995Z,52.20
2018-09-09T20:44:55.294Z,52.00
2018-09-09T20:47:23.952Z,52.30
2018-09-09T20:49:52.226Z,52.00
2018-09-09T20:52:20.539Z,52.30
2018-09-09T20:54:48.841Z,52.10
2018-09-09T20:57:17.161Z,52.10
2018-09-09T20:59:45.439Z,52.20
2018-09-09T21:02:13.755Z,52.30
2018-09-09T21:04:42.053Z,52.30
2018-09-09T21:07:10.390Z,52.30
2018-09-09T21:09:38.736Z,53.00
2018-09-09T21:12:07.010Z,52.70
2018-09-09T21:14:35.305Z,52.00
2018-09-09T21:17:03.651Z,51.00
2018-09-09T21:19:31.963Z,50.50
2018-09-09T21:22:00.247Z,50.50
2018-09-09T21:24:28.554Z,50.50
2018-09-09T21:26:56.853Z,50.70
2018-09-09T21:29:25.213Z,50.50
2018-09-09T21:31:53.557Z,50.20
2018-09-09T21:34:21.809Z,50.50
2018-09-09T21:36:50.089Z,50.40
2018-09-09T21:39:18.408Z,50.50
2018-09-09T21:41:46.675Z,50.50
2018-09-09T21:44:14.976Z,50.20
2018-09-09T21:46:43.235Z,50.00
2018-09-09T21:49:21.518Z,50.50
2018-09-09T21:51:51.333Z,51.90
2018-09-09T21:54:19.617Z,51.90
2018-09-09T21:56:47.893Z,51.50
2018-09-09T21:59:16.179Z,51.60
2018-09-09T22:01:49.784Z,51.50
2018-09-09T22:04:18.088Z,51.40
2018-09-09T22:06:46.392Z,52.50
2018-09-09T22:09:14.647Z,51.50
2018-09-09T22:11:42.928Z,51.30
2018-09-09T22:14:11.211Z,50.90
2018-09-09T22:16:39.487Z,50.20
2018-09-09T22:19:07.832Z,50.00
2018-09-09T22:21:36.127Z,50.00
2018-09-09T22:24:04.409Z,50.20
2018-09-09T22:26:33.272Z,50.50
2018-09-09T22:29:01.558Z,50.70
2018-09-09T22:31:29.825Z,51.00
2018-09-09T22:33:58.098Z,51.30
2018-09-09T22:36:26.385Z,51.70
2018-09-09T22:38:54.673Z,51.70
2018-09-09T22:41:22.948Z,51.30
2018-09-09T22:43:51.243Z,52.10
2018-09-09T22:46:19.503Z,51.50
2018-09-09T22:48:47.775Z,51.90
2018-09-09T22:51:16.103Z,52.00
2018-09-09T22:53:44.396Z,51.40
2018-09-09T22:56:12.663Z,50.80
2018-09-09T22:58:40.971Z,50.70
2018-09-09T23:01:09.253Z,50.80
2018-09-09T23:03:37.529Z,50.80
2018-09-09T23:06:05.796Z,50.90
2018-09-09T23:08:34.106Z,51.20
2018-09-09T23:11:02.493Z,50.90
2018-09-09T23:13:31.063Z,50.80
2018-09-09T23:15:59.372Z,51.10
2018-09-09T23:18:27.619Z,51.30
2018-09-09T23:20:55.875Z,51.80
2018-09-09T23:23:24.124Z,52.30
2018-09-09T23:25:52.431Z,51.70
2018-09-09T23:28:20.708Z,51.40
2018-09-09T23:30:49.006Z,51.20
2018-09-09T23:33:17.292Z,51.20
2018-09-09T23:35:45.580Z,51.40
2018-09-09T23:38:13.843Z,52.40
2018-09-09T23:40:42.815Z,51.90
2018-09-09T23:43:11.092Z,51.50
2018-09-09T23:45:39.414Z,51.70
2018-09-09T23:48:07.934Z,51.90
2018-09-09T23:50:36.222Z,51.90
2018-09-09T23:53:04.531Z,52.30
2018-09-09T23:55:32.790Z,52.40
2018-09-09T23:58:01.094Z,51.90
